Time;durP1;ratioP1;P1;durP2;ratioP2;P2;SDS_P1;SDS_P2;PMS_P1;PMS_P2;Temp;Humidity;BMP_temperature;BMP_pressure;BME280_temperature;BME280_humidity;BME280_pressure;Samples;Min_cycle;Max_cycle;Signal;HPM_P1;HPM_P2
2021/05/08 00:02:21;;;;;;;2.80;2.30;;;;;;;2.63;76.05;99794.96;128147;1098;101428;-84
2021/05/08 00:05:12;;;;;;;3.03;2.50;;;;;;;2.69;76.15;99789.75;128166;1098;101118;-84
2021/05/08 00:07:58;;;;;;;2.70;2.30;;;;;;;2.80;76.49;99792.27;128008;1099;100951;-84
2021/05/08 00:10:45;;;;;;;3.28;2.30;;;;;;;2.85;76.29;99798.22;128227;1098;100695;-84
2021/05/08 00:13:32;;;;;;;2.90;2.30;;;;;;;2.90;76.17;99799.91;128245;1098;102119;-84
2021/05/08 00:16:18;;;;;;;2.60;2.40;;;;;;;2.93;76.43;99802.45;128056;1098;101542;-84
2021/05/08 00:19:05;;;;;;;2.83;2.50;;;;;;;2.96;76.38;99805.00;128166;1098;100762;-84
2021/05/08 00:21:51;;;;;;;3.50;2.73;;;;;;;3.00;76.73;99803.25;128210;1097;100720;-84
2021/05/08 00:24:38;;;;;;;2.83;2.40;;;;;;;3.03;76.80;99814.38;128013;1098;100706;-84
2021/05/08 00:27:25;;;;;;;3.98;2.40;;;;;;;3.07;76.84;99806.64;128231;1098;100801;-84
2021/05/08 00:30:12;;;;;;;3.70;2.20;;;;;;;3.12;76.92;99816.03;128198;1098;101516;-84
2021/05/08 00:33:00;;;;;;;3.23;2.35;;;;;;;3.16;76.91;99819.44;128180;1098;100734;-84
2021/05/08 00:35:47;;;;;;;3.50;2.60;;;;;;;3.20;77.30;99821.96;128230;1098;100867;-83
2021/05/08 00:38:34;;;;;;;2.67;2.40;;;;;;;3.23;77.23;99827.11;128253;1098;100843;-84
2021/05/08 00:41:22;;;;;;;;;;;;;;;3.28;77.07;99829.64;128277;1098;100734;-84
2021/05/08 00:44:08;;;;;;;2.70;2.30;;;;;;;3.33;77.32;99822.71;128249;1098;100802;-84
2021/05/08 00:47:00;;;;;;;3.50;2.50;;;;;;;3.36;77.64;99827.83;127991;1098;101174;-84
2021/05/08 00:49:47;;;;;;;3.67;2.70;;;;;;;3.37;77.11;99834.69;128054;1098;100776;-84
2021/05/08 00:52:35;;;;;;;3.23;2.63;;;;;;;3.42;77.45;99832.95;128112;1098;100978;-84
2021/05/08 00:55:22;;;;;;;5.20;2.77;;;;;;;3.46;77.21;99833.77;128222;1098;100949;-84
2021/05/08 00:58:08;;;;;;;3.33;2.90;;;;;;;3.48;77.56;99835.45;127992;1098;100738;-84
2021/05/08 01:00:56;;;;;;;3.20;2.83;;;;;;;3.53;77.56;99846.56;128204;1098;100804;-82
2021/05/08 01:03:46;;;;;;;3.60;2.70;;;;;;;3.58;77.49;99847.36;127994;1098;100861;-84
2021/05/08 01:06:34;;;;;;;4.13;2.80;;;;;;;3.63;77.37;99843.04;127979;1099;100665;-82
2021/05/08 01:09:24;;;;;;;4.23;3.13;;;;;;;3.66;77.51;99856.77;128243;1098;100903;-83
2021/05/08 01:12:11;;;;;;;5.33;3.30;;;;;;;3.70;77.27;99853.28;127975;1099;100920;-81
2021/05/08 01:14:58;;;;;;;3.80;3.43;;;;;;;3.71;77.32;99849.83;128209;1098;101174;-81
2021/05/08 01:17:45;;;;;;;6.13;4.00;;;;;;;3.73;77.54;99859.25;128044;1098;101121;-81
2021/05/08 01:20:32;;;;;;;4.18;3.78;;;;;;;3.75;77.54;99866.97;128202;1098;101005;-81
2021/05/08 01:23:20;;;;;;;4.67;3.80;;;;;;;3.78;77.39;99861.81;128233;1098;100743;-84
2021/05/08 01:26:07;;;;;;;6.35;4.58;;;;;;;3.82;77.67;99858.31;128001;1098;101579;-82
2021/05/08 01:28:59;;;;;;;6.03;5.43;;;;;;;3.83;77.26;99860.02;127987;1098;101209;-84
2021/05/08 01:31:46;;;;;;;6.23;5.63;;;;;;;3.84;77.61;99853.99;128006;1098;101065;-82
2021/05/08 01:34:33;;;;;;;6.60;5.45;;;;;;;3.88;77.55;99858.23;128073;1098;100969;-84
2021/05/08 01:37:20;;;;;;;8.03;5.40;;;;;;;3.91;77.62;99869.38;128037;1098;100657;-82
2021/05/08 01:40:12;;;;;;;6.87;5.47;;;;;;;3.92;77.55;99865.06;128204;1098;101929;-84
2021/05/08 01:43:00;;;;;;;7.57;6.00;;;;;;;3.95;77.66;99865.05;127984;1098;100830;-84
2021/05/08 01:45:49;;;;;;;7.73;5.97;;;;;;;3.98;77.53;99872.76;128246;1098;100848;-84
2021/05/08 01:48:36;;;;;;;7.93;6.23;;;;;;;3.98;77.45;99867.59;128021;1098;100671;-84
2021/05/08 01:51:23;;;;;;;;;;;;;;;4.01;77.53;99870.13;128289;1098;100728;-84
2021/05/08 01:54:15;;;;;;;8.73;6.97;;;;;;;4.03;77.85;99872.70;127981;1098;101990;-84
2021/05/08 01:57:02;;;;;;;9.27;7.83;;;;;;;4.02;77.90;99871.84;128156;1098;100715;-82
2021/05/08 01:59:49;;;;;;;9.20;8.03;;;;;;;4.03;77.91;99881.29;128065;1098;100817;-81
2021/05/08 02:02:35;;;;;;;9.53;7.50;;;;;;;4.06;78.01;99881.25;128016;1098;101044;-81
2021/05/08 02:05:26;;;;;;;9.68;8.33;;;;;;;4.08;78.04;99887.25;128003;1099;100718;-82
2021/05/08 02:08:14;;;;;;;10.10;8.23;;;;;;;4.11;77.99;99889.78;128228;1098;101441;-82
2021/05/08 02:11:02;;;;;;;10.43;8.47;;;;;;;4.14;78.00;99887.20;128059;1098;100991;-82
2021/05/08 02:13:49;;;;;;;12.25;8.75;;;;;;;4.20;78.00;99889.69;128252;1098;102555;-82
2021/05/08 02:16:37;;;;;;;13.03;8.90;;;;;;;4.25;78.22;99890.48;128233;1098;100760;-82
2021/05/08 02:19:23;;;;;;;9.63;8.60;;;;;;;4.25;78.29;99895.64;128245;1098;101041;-82
2021/05/08 02:22:10;;;;;;;11.83;9.10;;;;;;;4.29;78.35;99898.19;128036;1098;101788;-82
2021/05/08 02:24:57;;;;;;;10.35;8.45;;;;;;;4.31;78.14;99896.44;128199;1098;100698;-84
2021/05/08 02:27:44;;;;;;;10.83;8.27;;;;;;;4.35;78.14;99903.30;128011;1097;100709;-84
2021/05/08 02:30:34;;;;;;;11.57;8.87;;;;;;;4.39;78.35;99907.54;128181;1098;101166;-84
2021/05/08 02:33:20;;;;;;;11.50;8.77;;;;;;;4.42;78.08;99910.08;128040;1099;101728;-82
2021/05/08 02:36:07;;;;;;;10.20;9.03;;;;;;;4.46;78.18;99911.73;128018;1098;101466;-81
2021/05/08 02:38:53;;;;;;;10.13;8.10;;;;;;;4.47;78.23;99916.88;128125;1098;100830;-81
2021/05/08 02:41:40;;;;;;;10.67;8.13;;;;;;;4.46;78.03;99919.48;128022;1098;101129;-82
2021/05/08 02:44:26;;;;;;;16.40;9.13;;;;;;;4.47;77.88;99923.77;128247;1098;100932;-82
2021/05/08 02:47:18;;;;;;;12.43;8.37;;;;;;;4.46;77.88;99929.81;128027;1098;100692;-82
2021/05/08 02:50:11;;;;;;;10.83;8.10;;;;;;;4.46;78.19;99934.98;128238;1098;101865;-82
2021/05/08 02:52:58;;;;;;;10.97;7.97;;;;;;;4.48;78.24;99940.98;127983;1098;100824;-84
2021/05/08 02:55:47;;;;;;;11.07;8.60;;;;;;;4.49;78.15;99938.41;128223;1098;100865;-84
2021/05/08 02:58:34;;;;;;;9.87;8.83;;;;;;;4.52;78.12;99953.00;128007;1099;100739;-82
2021/05/08 03:01:21;;;;;;;9.28;7.53;;;;;;;4.57;78.57;99942.61;128037;1098;100876;-82
2021/05/08 03:04:09;;;;;;;10.73;9.27;;;;;;;4.60;78.38;99947.73;128236;1098;101902;-82
2021/05/08 03:06:56;;;;;;;13.33;10.37;;;;;;;4.63;78.32;99945.95;128155;1098;100729;-82
2021/05/08 03:09:43;;;;;;;12.35;10.70;;;;;;;4.65;78.13;99946.78;128042;1098;100836;-81
2021/05/08 03:12:31;;;;;;;14.20;10.13;;;;;;;4.68;78.15;99953.67;128071;1098;101002;-81
2021/05/08 03:15:18;;;;;;;12.20;10.68;;;;;;;4.70;78.29;99962.25;128031;1098;100720;-82
2021/05/08 03:18:05;;;;;;;10.68;9.35;;;;;;;4.72;78.00;99958.77;128228;1098;101497;-81
2021/05/08 03:20:51;;;;;;;10.80;8.90;;;;;;;4.74;77.95;99972.52;128139;1098;101179;-82
2021/05/08 03:23:38;;;;;;;8.33;7.20;;;;;;;4.74;77.42;99972.52;128210;1097;100723;-82
2021/05/08 03:26:26;;;;;;;8.18;6.95;;;;;;;4.74;77.46;99980.27;127996;1098;100747;-84
2021/05/08 03:29:13;;;;;;;8.43;7.10;;;;;;;4.73;77.28;99981.14;128032;1099;101116;-82
2021/05/08 03:32:00;;;;;;;9.45;7.43;;;;;;;4.75;77.84;99987.14;128018;1098;101741;-84
2021/05/08 03:34:46;;;;;;;9.20;7.60;;;;;;;4.78;77.71;99989.69;128182;1098;100772;-82
2021/05/08 03:37:35;;;;;;;9.97;6.83;;;;;;;4.79;78.04;99986.22;128244;1098;100777;-84
2021/05/08 03:40:22;;;;;;;9.03;6.93;;;;;;;4.81;77.97;99986.20;128212;1098;101191;-84
2021/05/08 03:43:09;;;;;;;8.18;6.73;;;;;;;4.83;77.61;99987.88;128016;1098;100914;-84
2021/05/08 03:45:56;;;;;;;8.63;6.97;;;;;;;4.81;77.58;100004.28;128184;1098;102190;-82
2021/05/08 03:48:44;;;;;;;8.80;7.80;;;;;;;4.78;77.67;100000.02;128213;1098;101119;-84
2021/05/08 03:51:31;;;;;;;8.40;6.80;;;;;;;4.77;77.50;100002.63;128256;1098;100777;-82
2021/05/08 03:54:17;;;;;;;9.17;7.40;;;;;;;4.74;77.43;100002.66;128015;1098;100771;-82
2021/05/08 03:57:05;;;;;;;7.90;6.70;;;;;;;4.75;77.35;100015.56;128184;1098;100847;-82
2021/05/08 03:59:52;;;;;;;8.80;7.30;;;;;;;4.73;77.21;100009.56;127988;1098;101660;-82
2021/05/08 04:02:39;;;;;;;9.30;6.83;;;;;;;4.70;77.27;100017.36;127983;1098;100750;-84
2021/05/08 04:05:26;;;;;;;7.48;6.40;;;;;;;4.65;77.24;100024.28;128012;1098;100883;-81
2021/05/08 04:08:13;;;;;;;7.55;6.65;;;;;;;4.63;77.01;100032.92;128211;1098;100703;-82
2021/05/08 04:11:00;;;;;;;7.53;6.30;;;;;;;4.58;77.18;100030.41;128220;1098;101141;-82
2021/05/08 04:13:46;;;;;;;7.23;6.55;;;;;;;4.55;77.00;100035.61;128006;1098;101496;-82
2021/05/08 04:16:33;;;;;;;8.55;7.20;;;;;;;4.52;76.97;100040.81;128151;1098;100721;-82
2021/05/08 04:19:20;;;;;;;9.07;7.37;;;;;;;4.54;76.88;100051.98;128026;1098;100879;-82
2021/05/08 04:22:06;;;;;;;8.13;7.30;;;;;;;4.63;77.14;100041.53;128232;1098;100764;-82
2021/05/08 04:24:53;;;;;;;7.83;6.77;;;;;;;4.68;76.90;100047.52;128242;1098;100752;-83
2021/05/08 04:27:41;;;;;;;7.63;6.83;;;;;;;4.72;76.72;100051.77;128191;1098;103133;-82
2021/05/08 04:30:30;;;;;;;8.03;7.20;;;;;;;4.74;77.05;100050.02;128012;1098;100709;-82
2021/05/08 04:33:36;;;;;;;7.33;6.57;;;;;;;4.80;76.62;100055.11;128244;1098;101131;-82
2021/05/08 04:36:22;;;;;;;7.43;6.10;;;;;;;4.83;76.37;100062.81;128217;1098;100860;-82
2021/05/08 04:39:09;;;;;;;7.50;6.25;;;;;;;4.82;76.40;100063.70;128181;1098;101252;-82
2021/05/08 04:41:56;;;;;;;7.75;6.95;;;;;;;4.84;76.64;100074.86;128003;1099;101478;-82
2021/05/08 04:44:43;;;;;;;7.63;6.83;;;;;;;4.85;76.47;100079.19;128145;1098;100794;-82
2021/05/08 04:47:29;;;;;;;7.67;6.87;;;;;;;4.89;76.34;100077.42;128193;1098;101152;-82
2021/05/08 04:50:16;;;;;;;6.90;6.20;;;;;;;4.90;76.58;100075.69;128219;1098;100707;-83
2021/05/08 04:53:03;;;;;;;8.03;6.13;;;;;;;4.94;76.48;100082.52;128248;1098;100667;-82
2021/05/08 04:55:49;;;;;;;7.23;6.37;;;;;;;4.97;76.22;100077.31;128030;1098;101992;-82
2021/05/08 04:58:36;;;;;;;7.50;5.80;;;;;;;4.99;76.09;100083.31;128169;1098;100838;-84
2021/05/08 05:01:23;;;;;;;9.30;7.25;;;;;;;5.00;76.32;100078.13;128077;1098;100747;-84
2021/05/08 05:04:09;;;;;;;6.53;5.83;;;;;;;5.04;76.14;100078.97;127975;1098;100741;-84
2021/05/08 05:06:55;;;;;;;8.00;6.57;;;;;;;5.06;76.26;100084.97;128185;1098;100841;-82
2021/05/08 05:09:42;;;;;;;7.53;6.73;;;;;;;5.07;76.20;100079.78;128239;1098;101479;-82
2021/05/08 05:12:28;;;;;;;10.10;7.77;;;;;;;5.12;76.17;100082.30;127980;1098;100785;-84
2021/05/08 05:15:18;;;;;;;9.05;7.95;;;;;;;5.16;76.09;100083.97;128262;1098;100753;-82
2021/05/08 05:18:05;;;;;;;9.43;8.43;;;;;;;5.22;76.06;100099.42;128012;1098;100860;-82
2021/05/08 05:20:53;;;;;;;9.87;8.73;;;;;;;5.29;75.84;100098.45;127999;1098;101159;-82
2021/05/08 05:23:39;;;;;;;10.50;9.37;;;;;;;5.51;76.00;100104.19;128176;1098;101563;-82
2021/05/08 05:26:26;;;;;;;9.97;8.53;;;;;;;5.83;74.88;100095.96;128208;1098;100686;-82
2021/05/08 05:29:12;;;;;;;9.50;8.20;;;;;;;5.92;74.89;100093.25;128138;1098;100854;-84
2021/05/08 05:31:59;;;;;;;9.77;8.43;;;;;;;5.99;74.27;100104.38;128232;1098;100710;-84
2021/05/08 05:34:45;;;;;;;8.75;7.95;;;;;;;6.02;74.58;100102.59;128208;1098;100754;-84
2021/05/08 05:37:32;;;;;;;9.70;8.18;;;;;;;6.01;73.83;100107.80;128039;1098;101532;-84
2021/05/08 05:40:18;;;;;;;9.50;8.43;;;;;;;5.98;73.77;100113.03;128225;1098;100830;-84
2021/05/08 05:43:05;;;;;;;8.60;7.73;;;;;;;6.00;73.60;100116.45;128259;1098;100743;-84
2021/05/08 05:45:52;;;;;;;10.07;7.83;;;;;;;6.00;73.57;100125.06;128233;1098;100968;-84
2021/05/08 05:48:38;;;;;;;9.27;8.37;;;;;;;6.00;73.54;100121.63;128217;1098;100969;-84
2021/05/08 05:51:25;;;;;;;15.23;11.43;;;;;;;5.95;73.99;100126.03;128236;1098;100784;-84
2021/05/08 05:54:11;;;;;;;9.55;8.58;;;;;;;5.94;73.99;100132.94;128219;1098;103023;-84
2021/05/08 05:56:57;;;;;;;9.53;8.53;;;;;;;5.95;73.51;100137.23;128246;1098;100751;-84
2021/05/08 05:59:45;;;;;;;8.08;7.28;;;;;;;5.95;73.56;100136.38;127977;1098;101151;-84
2021/05/08 06:02:34;;;;;;;12.35;9.18;;;;;;;6.00;73.57;100137.16;128026;1098;100692;-84
2021/05/08 06:05:21;;;;;;;9.07;7.53;;;;;;;6.20;73.93;100134.25;128249;1098;101133;-84
2021/05/08 06:08:11;;;;;;;10.07;7.93;;;;;;;6.43;73.12;100139.90;128052;1098;101129;-84
2021/05/08 06:10:58;;;;;;;9.50;7.40;;;;;;;6.63;72.97;100149.92;128024;1098;100831;-84
2021/05/08 06:13:44;;;;;;;7.30;6.50;;;;;;;6.82;72.77;100156.52;128240;1098;100697;-84
2021/05/08 06:16:31;;;;;;;8.83;6.87;;;;;;;6.95;72.30;100150.19;128247;1098;100797;-85
2021/05/08 06:19:17;;;;;;;8.27;6.60;;;;;;;7.03;71.74;100159.58;128189;1098;104539;-85
2021/05/08 06:22:04;;;;;;;7.20;6.50;;;;;;;7.09;71.22;100154.27;128155;1098;100744;-85
2021/05/08 06:24:50;;;;;;;6.93;6.23;;;;;;;7.06;71.35;100160.38;128006;1098;100737;-85
2021/05/08 06:27:36;;;;;;;7.15;6.45;;;;;;;7.06;71.42;100165.56;128031;1098;100736;-84
2021/05/08 06:30:23;;;;;;;9.57;6.77;;;;;;;7.23;71.75;100158.30;128060;1098;100779;-84
2021/05/08 06:33:10;;;;;;;7.43;5.87;;;;;;;8.73;71.04;100167.89;128176;1098;101219;-84
2021/05/08 06:35:57;;;;;;;5.43;4.93;;;;;;;9.11;68.28;100166.02;128220;1098;100717;-82
2021/05/08 06:38:47;;;;;;;7.00;4.98;;;;;;;8.97;67.81;100162.03;128227;1098;100871;-83
2021/05/08 06:41:33;;;;;;;5.77;4.83;;;;;;;9.66;67.29;100150.52;128169;1098;100792;-84
2021/05/08 06:44:20;;;;;;;4.70;4.27;;;;;;;10.32;65.75;100145.05;128224;1098;100670;-84
2021/05/08 06:47:14;;;;;;;4.87;3.97;;;;;;;12.47;64.33;100137.91;128220;1098;101538;-83
2021/05/08 06:50:01;;;;;;;5.63;3.80;;;;;;;15.19;62.24;100130.34;128156;1098;100846;-84
2021/05/08 06:52:48;;;;;;;3.85;3.25;;;;;;;16.06;56.72;100115.91;128235;1098;100681;-83
2021/05/08 06:55:34;;;;;;;4.33;3.70;;;;;;;15.17;55.39;100130.42;128267;1098;100796;-83
2021/05/08 06:58:21;;;;;;;3.40;2.93;;;;;;;14.50;55.13;100128.63;128061;1098;101212;-85
2021/05/08 07:01:08;;;;;;;4.80;3.40;;;;;;;14.28;54.10;100139.31;128275;1098;101887;-83
2021/05/08 07:03:56;;;;;;;;;;;;;;;13.54;54.93;100146.35;128239;1098;100664;-83
2021/05/08 07:06:47;;;;;;;5.90;3.73;;;;;;;12.83;55.48;100152.98;128262;1098;100849;-82
2021/05/08 07:09:33;;;;;;;4.20;3.80;;;;;;;12.32;56.13;100151.62;128058;1098;100794;-83
2021/05/08 07:12:20;;;;;;;6.07;4.40;;;;;;;13.00;57.05;100164.42;128079;1098;101064;-83
2021/05/08 07:15:07;;;;;;;4.90;4.33;;;;;;;14.08;55.66;100153.40;128229;1098;102422;-83
2021/05/08 07:18:01;;;;;;;5.10;4.50;;;;;;;14.44;53.42;100142.92;128185;1098;101162;-82
2021/05/08 07:20:48;;;;;;;5.97;4.33;;;;;;;15.01;53.85;100154.01;128238;1098;101018;-82
2021/05/08 07:23:35;;;;;;;5.10;4.00;;;;;;;14.86;51.95;100146.92;127977;1098;100697;-83
2021/05/08 07:26:21;;;;;;;6.40;3.73;;;;;;;15.92;52.04;100147.41;128015;1098;100734;-81
2021/05/08 07:29:08;;;;;;;4.23;3.10;;;;;;;15.73;50.43;100154.61;128068;1098;101404;-82
2021/05/08 07:31:55;;;;;;;4.37;3.23;;;;;;;14.72;49.77;100166.02;128200;1098;100843;-83
2021/05/08 07:34:41;;;;;;;6.23;3.30;;;;;;;13.82;50.63;100159.89;128243;1098;101139;-82
2021/05/08 07:37:31;;;;;;;4.53;3.13;;;;;;;13.20;52.13;100166.20;128247;1098;101129;-82
2021/05/08 07:40:19;;;;;;;4.13;3.20;;;;;;;13.28;52.32;100169.34;128037;1098;100833;-82
2021/05/08 07:43:06;;;;;;;6.13;3.67;;;;;;;13.18;51.91;100181.13;128021;1098;100847;-83
2021/05/08 07:45:54;;;;;;;4.23;3.30;;;;;;;12.80;52.76;100167.05;128024;1098;100881;-83
2021/05/08 07:48:41;;;;;;;5.77;3.57;;;;;;;13.40;53.08;100175.78;128279;1098;100752;-82
2021/05/08 07:51:28;;;;;;;3.78;3.08;;;;;;;13.86;51.99;100161.44;128038;1099;100771;-82
2021/05/08 07:54:14;;;;;;;3.58;2.50;;;;;;;14.69;49.13;100158.27;128019;1098;101051;-83
2021/05/08 07:57:01;;;;;;;6.70;3.10;;;;;;;15.66;48.25;100178.63;128018;1098;102019;-83
2021/05/08 07:59:48;;;;;;;3.63;2.50;;;;;;;16.21;47.24;100170.30;128209;1098;100830;-82
2021/05/08 08:02:35;;;;;;;4.58;2.88;;;;;;;17.19;46.52;100178.59;128063;1098;101096;-82
2021/05/08 08:05:23;;;;;;;4.97;2.50;;;;;;;17.84;44.54;100170.23;128179;1098;102424;-83
2021/05/08 08:08:10;;;;;;;5.27;2.90;;;;;;;17.47;44.58;100163.75;128031;1098;100676;-83
2021/05/08 08:10:57;;;;;;;5.87;2.60;;;;;;;17.37;44.84;100176.63;128187;1098;101441;-82
2021/05/08 08:13:44;;;;;;;3.63;2.43;;;;;;;16.59;44.07;100178.63;127997;1098;100799;-82
2021/05/08 08:16:31;;;;;;;4.40;2.30;;;;;;;15.68;43.69;100173.27;127995;1098;103016;-83
2021/05/08 08:19:18;;;;;;;3.85;2.30;;;;;;;15.69;44.13;100164.45;128202;1098;101047;-82
2021/05/08 08:22:10;;;;;;;3.83;2.37;;;;;;;16.30;45.56;100177.66;128239;1098;100786;-82
2021/05/08 08:24:58;;;;;;;5.93;2.90;;;;;;;17.65;44.66;100159.11;128102;1098;101466;-83
2021/05/08 08:27:44;;;;;;;4.43;2.38;;;;;;;18.46;42.87;100170.59;128064;1098;100703;-83
2021/05/08 08:30:31;;;;;;;4.00;2.27;;;;;;;18.65;40.07;100175.53;128100;1098;100836;-82
2021/05/08 08:33:17;;;;;;;4.10;2.67;;;;;;;19.11;41.92;100177.72;128197;1098;100645;-83
2021/05/08 08:36:04;;;;;;;6.23;2.50;;;;;;;19.88;40.96;100166.11;128139;1098;100809;-83
2021/05/08 08:38:51;;;;;;;4.75;2.30;;;;;;;20.69;40.22;100178.73;128002;1098;103178;-83
2021/05/08 08:41:37;;;;;;;3.65;2.40;;;;;;;20.39;38.06;100187.11;127969;1098;100739;-83
2021/05/08 08:44:24;;;;;;;3.20;2.17;;;;;;;19.48;38.49;100183.95;128217;1098;100831;-83
2021/05/08 08:47:28;;;;;;;3.33;2.23;;;;;;;19.91;39.06;100182.62;127997;1098;100804;-83
2021/05/08 08:50:25;;;;;;;5.13;2.30;;;;;;;20.60;38.00;100188.20;128070;1098;100743;-83
2021/05/08 08:53:14;;;;;;;2.73;2.07;;;;;;;21.04;37.21;100187.50;128108;1098;101585;-83
2021/05/08 08:56:02;;;;;;;4.50;2.30;;;;;;;21.17;35.81;100171.47;128097;1098;100850;-84
2021/05/08 08:58:56;;;;;;;3.33;2.07;;;;;;;21.20;35.64;100186.33;128138;1098;101135;-84
2021/05/08 09:01:49;;;;;;;3.03;2.00;;;;;;;21.48;36.61;100190.34;128012;1098;100788;-83
2021/05/08 09:04:39;;;;;;;2.87;1.93;;;;;;;21.68;34.73;100169.23;128196;1098;100761;-83
2021/05/08 09:07:31;;;;;;;3.73;2.03;;;;;;;21.91;34.46;100183.34;127989;1098;101842;-83
2021/05/08 09:10:23;;;;;;;3.40;1.93;;;;;;;22.20;34.64;100186.31;127963;1098;100965;-82
2021/05/08 09:13:18;;;;;;;3.13;2.07;;;;;;;22.44;35.15;100178.16;128245;1098;101090;-82
2021/05/08 09:16:07;;;;;;;3.47;2.00;;;;;;;22.30;34.37;100179.30;128224;1098;100703;-82
2021/05/08 09:18:54;;;;;;;3.40;1.90;;;;;;;21.90;34.17;100188.75;128136;1099;100868;-82
2021/05/08 09:21:40;;;;;;;2.13;1.93;;;;;;;21.16;33.35;100193.66;128231;1098;101924;-82
2021/05/08 09:24:29;;;;;;;3.20;2.20;;;;;;;20.09;34.74;100187.54;127983;1098;101012;-83
2021/05/08 09:27:32;;;;;;;6.73;2.53;;;;;;;18.99;35.13;100188.17;128220;1098;100872;-83
2021/05/08 09:30:23;;;;;;;5.37;2.97;;;;;;;17.99;36.33;100193.01;128238;1098;100796;-83
2021/05/08 09:33:20;;;;;;;3.73;2.47;;;;;;;17.11;37.67;100198.46;128214;1098;101151;-83
2021/05/08 09:36:12;;;;;;;4.00;2.20;;;;;;;16.28;37.37;100190.06;128222;1098;100863;-83
2021/05/08 09:38:59;;;;;;;3.37;2.10;;;;;;;16.15;38.50;100196.09;128221;1097;100744;-84
2021/05/08 09:41:46;;;;;;;3.20;2.30;;;;;;;15.92;38.59;100205.27;128077;1098;100818;-84
2021/05/08 09:44:33;;;;;;;3.37;2.43;;;;;;;15.59;38.96;100200.89;128258;1098;100935;-84
2021/05/08 09:47:29;;;;;;;2.97;2.17;;;;;;;15.77;39.62;100192.95;128264;1098;100770;-85
2021/05/08 09:50:20;;;;;;;5.57;2.70;;;;;;;15.74;39.61;100201.01;128249;1098;101837;-84
2021/05/08 09:53:07;;;;;;;4.07;2.37;;;;;;;15.46;39.65;100198.99;128211;1098;100932;-84
2021/05/08 09:55:59;;;;;;;3.87;2.13;;;;;;;15.02;39.81;100200.36;128273;1098;100709;-84
2021/05/08 09:58:45;;;;;;;4.83;2.43;;;;;;;14.56;40.42;100204.45;128261;1098;101088;-85
2021/05/08 10:01:32;;;;;;;4.15;2.40;;;;;;;14.01;41.91;100206.22;128055;1099;101198;-85
2021/05/08 10:04:33;;;;;;;4.40;2.63;;;;;;;13.30;41.98;100217.28;128235;1098;100720;-84
2021/05/08 10:07:30;;;;;;;3.77;2.30;;;;;;;12.68;43.44;100219.89;128088;1098;100902;-84
2021/05/08 10:10:19;;;;;;;4.43;2.30;;;;;;;12.35;44.44;100227.33;127978;1098;100758;-83
2021/05/08 10:13:09;;;;;;;4.03;2.40;;;;;;;12.19;45.38;100226.23;128228;1098;100693;-83
2021/05/08 10:15:58;;;;;;;3.63;2.53;;;;;;;12.23;46.04;100226.08;128244;1098;100786;-83
2021/05/08 10:18:45;;;;;;;4.50;2.50;;;;;;;12.86;47.10;100219.13;127998;1099;101845;-83
2021/05/08 10:21:32;;;;;;;5.27;2.43;;;;;;;13.91;46.73;100214.50;128014;1099;100874;-83
2021/05/08 10:24:20;;;;;;;5.87;2.93;;;;;;;14.34;44.51;100215.09;128030;1098;100707;-83
2021/05/08 10:27:08;;;;;;;4.57;2.50;;;;;;;14.12;43.94;100201.30;128241;1098;100796;-83
2021/05/08 10:29:55;;;;;;;4.80;2.50;;;;;;;13.70;43.77;100225.13;128007;1098;101149;-83
2021/05/08 10:32:45;;;;;;;3.83;2.20;;;;;;;13.35;43.95;100218.84;128209;1098;102645;-83
2021/05/08 10:35:42;;;;;;;3.53;1.90;;;;;;;13.15;44.19;100228.38;128015;1099;100909;-84
2021/05/08 10:38:34;;;;;;;2.93;1.90;;;;;;;13.56;44.30;100230.98;128248;1098;100978;-84
2021/05/08 10:41:21;;;;;;;3.33;2.07;;;;;;;14.14;44.47;100215.19;128224;1098;100721;-83
2021/05/08 10:44:08;;;;;;;4.67;2.27;;;;;;;14.72;44.91;100208.02;128046;1098;100863;-82
2021/05/08 10:46:55;;;;;;;4.00;1.87;;;;;;;15.36;43.98;100217.86;128039;1099;100788;-82
2021/05/08 10:49:41;;;;;;;3.77;1.70;;;;;;;15.73;42.38;100212.45;128230;1098;101147;-84
2021/05/08 10:53:03;;;;;;;4.00;1.70;;;;;;;15.59;41.46;100215.82;128135;1098;101159;-84
2021/05/08 10:55:59;;;;;;;2.50;1.40;;;;;;;15.15;41.44;100237.36;128234;1098;100865;-83
2021/05/08 10:59:03;;;;;;;2.47;1.37;;;;;;;14.57;42.07;100240.27;128234;1098;100707;-83
2021/05/08 11:01:50;;;;;;;3.83;1.70;;;;;;;14.07;43.07;100243.48;128141;1098;102083;-83
2021/05/08 11:05:15;;;;;;;3.65;2.00;;;;;;;13.74;44.04;100243.25;127977;1098;100816;-83
2021/05/08 11:08:27;;;;;;;2.97;1.73;;;;;;;13.55;44.48;100251.09;128050;1098;100776;-83
2021/05/08 11:11:15;;;;;;;3.93;1.87;;;;;;;13.88;45.59;100248.73;128219;1098;101532;-85
2021/05/08 11:14:02;;;;;;;4.60;3.30;;;;;;;14.25;44.84;100233.05;128240;1098;100804;-84
2021/05/08 11:16:54;;;;;;;3.23;2.20;;;;;;;14.43;44.81;100235.69;128073;1098;101547;-84
2021/05/08 11:19:41;;;;;;;4.67;2.13;;;;;;;14.52;44.33;100226.50;128007;1098;100888;-84
2021/05/08 11:22:32;;;;;;;2.27;1.60;;;;;;;14.45;44.02;100238.23;128017;1098;100798;-83
2021/05/08 11:25:31;;;;;;;4.93;2.00;;;;;;;14.24;43.57;100237.45;128013;1098;100771;-84
2021/05/08 11:28:21;;;;;;;3.63;1.83;;;;;;;13.99;43.89;100247.38;128075;1098;100606;-83
2021/05/08 11:31:40;;;;;;;3.07;1.80;;;;;;;13.76;44.19;100237.94;128003;1098;101703;-83
2021/05/08 11:34:35;;;;;;;3.73;1.80;;;;;;;13.69;44.13;100231.29;128056;1098;100805;-83
2021/05/08 11:37:22;;;;;;;3.93;2.00;;;;;;;13.90;44.34;100243.41;128028;1098;100853;-84
2021/05/08 11:40:10;;;;;;;4.73;2.00;;;;;;;14.15;44.25;100227.38;128001;1098;101187;-83
2021/05/08 11:42:56;;;;;;;4.55;2.40;;;;;;;14.42;43.73;100220.83;128160;1098;100744;-83
2021/05/08 11:45:43;;;;;;;3.87;2.10;;;;;;;14.73;43.25;100235.13;128056;1098;101521;-84
2021/05/08 11:48:30;;;;;;;7.08;2.38;;;;;;;14.94;42.54;100228.80;128038;1099;101079;-83
2021/05/08 11:51:19;;;;;;;5.17;2.03;;;;;;;14.97;42.17;100218.13;128083;1098;101141;-85
2021/05/08 11:54:11;;;;;;;4.10;2.20;;;;;;;14.96;41.95;100224.31;128197;1098;100763;-84
2021/05/08 11:56:58;;;;;;;5.43;2.23;;;;;;;14.98;41.86;100229.48;128075;1098;100699;-85
2021/05/08 11:59:44;;;;;;;3.97;2.00;;;;;;;15.02;41.25;100215.27;128002;1098;101620;-83
2021/05/08 12:02:30;;;;;;;3.47;2.00;;;;;;;15.03;41.61;100223.06;128001;1098;100712;-84
2021/05/08 12:05:35;;;;;;;6.27;2.60;;;;;;;15.13;41.29;100210.33;128165;1098;100982;-86
2021/05/08 12:08:24;;;;;;;2.90;2.03;;;;;;;15.05;41.67;100222.98;128008;1098;101092;-83
2021/05/08 12:11:20;;;;;;;3.83;2.00;;;;;;;14.96;40.84;100226.94;128031;1098;100794;-84
2021/05/08 12:14:12;;;;;;;4.20;2.20;;;;;;;14.80;40.83;100226.01;128018;1098;101502;-84
2021/05/08 12:16:59;;;;;;;3.70;1.73;;;;;;;14.72;40.46;100220.27;128038;1098;100840;-84
2021/05/08 12:19:46;;;;;;;4.27;2.00;;;;;;;14.54;40.41;100229.05;128039;1098;100777;-84
2021/05/08 12:22:35;;;;;;;4.83;2.20;;;;;;;14.39;40.75;100231.48;128053;1098;100709;-84
2021/05/08 12:25:28;;;;;;;4.17;2.00;;;;;;;14.42;40.98;100241.83;128051;1098;100776;-85
2021/05/08 12:28:41;;;;;;;5.20;2.00;;;;;;;14.41;40.53;100218.28;128068;1098;101437;-91
2021/05/08 12:31:37;;;;;;;5.47;2.20;;;;;;;14.34;40.90;100230.83;128221;1098;101518;-83
2021/05/08 12:34:33;;;;;;;6.67;2.30;;;;;;;14.13;41.12;100242.34;127982;1098;101122;-85
2021/05/08 12:37:21;;;;;;;4.83;2.30;;;;;;;13.91;41.06;100243.34;128055;1098;100160;-85
2021/05/08 12:40:10;;;;;;;5.30;1.97;;;;;;;13.73;41.78;100240.70;128073;1098;100649;-84
2021/05/08 12:42:57;;;;;;;4.93;2.23;;;;;;;13.56;40.91;100233.59;128018;1098;101461;-85
2021/05/08 12:46:11;;;;;;;4.53;2.05;;;;;;;13.30;40.66;100225.13;128216;1098;100745;-85
2021/05/08 12:49:06;;;;;;;3.30;2.10;;;;;;;13.08;40.87;100224.30;128090;1098;100635;-84
2021/05/08 12:51:54;;;;;;;3.23;2.10;;;;;;;13.08;40.95;100220.83;128242;1098;100810;-85
2021/05/08 12:54:50;;;;;;;3.47;1.70;;;;;;;13.25;40.94;100203.50;128092;1098;100788;-85